Huntsville Municipal Airport Huntsville US
ICAO: KUTS
IATA: UTS
Category: Medium
Scheduled Services: No

Elevation: 363 ft
TransAlt. 18000 ft.

Airport Communications:
ASOS:119.425
HOUSTON CNTR:134.8
MONTGOMERY CO RDO:122.3
CTAF/UNICOM:122.8

KUTS Zoom In..

If Map Doesn't Load, Click Here

Runways:

(A) RW 18 length 5005 ft width 100 ft
---- / hdg 180

(B) RW 36 length 5005 ft width 100 ft
---- / hdg 360

Location; KUTS
Day. 21 / Time. 16.08 Zulu
* Altimeter: 30.00
* Temperature: 29° c. 84.2°f.
* Wind from: VRB° Speed 03 kn.
Dewpoint: 24° c.
Visibility: 10 Statute Miles.
Clouds: Broken 1800 ft.
Clouds: Broken 2300 ft.

KUTS 211608Z AUTO VRB03KT 10SM BKN018 BKN023 29/24 A3000 RMK AO2 T02940244


Wind From VRB°
Speed 03 kn.

 
 
jpsmedia.com for Web Design worldairports.se 2018   terms of use